Time;durP1;ratioP1;P1;durP2;ratioP2;P2;SDS_P1;SDS_P2;PMS_P1;PMS_P2;Temp;Humidity;BMP_temperature;BMP_pressure;BME280_temperature;BME280_humidity;BME280_pressure;Samples;Min_cycle;Max_cycle;Signal;HPM_P1;HPM_P2
2023/06/09 05:00:29;;;;;;;;;20.00;20.00;;;;;23.23;52.51;51972.88;6197188;22;46559;31
2023/06/09 05:02:57;;;;;;;;;18.33;17.67;;;;;23.25;52.98;51791.97;4974272;28;46168;-91
2023/06/09 05:05:22;;;;;;;;;19.00;17.67;;;;;23.02;52.54;52099.34;4978115;28;45982;-88
2023/06/09 05:07:47;;;;;;;;;20.33;17.33;;;;;23.17;52.49;52067.28;4978362;28;45436;-91
2023/06/09 05:10:13;;;;;;;;;18.00;14.33;;;;;23.14;52.93;51801.31;4976467;28;45353;-89
2023/06/09 05:12:39;;;;;;;;;24.00;20.67;;;;;22.06;53.15;51679.69;4984392;28;46325;-92
2023/06/09 05:15:09;;;;;;;;;18.33;17.00;;;;;22.90;53.17;51629.72;4990614;28;45547;-92
2023/06/09 05:17:36;;;;;;;;;19.00;18.67;;;;;22.77;53.02;51487.38;4977078;28;45678;-88
2023/06/09 05:20:06;;;;;;;;;16.00;15.00;;;;;22.82;53.32;51292.31;4973921;28;45517;-88
2023/06/09 05:22:32;;;;;;;;;20.67;18.33;;;;;22.29;53.07;50841.28;4976442;28;46984;-89
2023/06/09 05:24:58;;;;;;;;;18.00;18.00;;;;;22.71;52.66;51052.09;4977960;28;45367;-89
2023/06/09 05:27:23;;;;;;;;;15.00;15.00;;;;;22.70;52.74;51081.19;4972242;28;45522;-88
2023/06/09 05:29:49;;;;;;;;;18.67;18.00;;;;;22.65;53.05;51148.75;4978118;28;45611;-88
2023/06/09 05:32:14;;;;;;;;;18.33;18.33;;;;;22.41;53.07;51460.88;4977975;28;46359;-89
2023/06/09 05:37:07;;;;;;;;;17.67;17.67;;;;;23.00;53.45;51471.81;5005989;28;45762;-83
2023/06/09 05:39:33;;;;;;;;;17.00;17.00;;;;;22.83;52.87;51290.97;5014866;28;45527;-83
2023/06/09 05:42:00;;;;;;;;;21.33;19.67;;;;;23.08;53.09;51167.91;5008668;28;46569;-83
2023/06/09 05:44:25;;;;;;;;;17.33;16.00;;;;;23.14;53.13;51396.19;5016852;28;45561;-82
2023/06/09 05:46:50;;;;;;;;;19.67;19.00;;;;;22.97;52.39;51574.25;5017142;28;45473;-82
2023/06/09 05:49:16;;;;;;;;;21.33;20.00;;;;;23.21;52.84;52043.59;5017138;28;45379;-83
2023/06/09 05:51:41;;;;;;;;;18.00;17.67;;;;;23.14;52.36;52013.97;5015675;28;46204;-83
2023/06/09 05:54:07;;;;;;;;;19.00;19.00;;;;;23.29;52.74;52187.88;5015737;28;45384;-83
2023/06/09 05:56:32;;;;;;;;;24.67;21.00;;;;;23.01;52.67;51722.88;4998710;28;45601;-83
2023/06/09 05:59:01;;;;;;;;;20.33;18.00;;;;;23.28;52.66;51478.13;4999294;28;45721;-83
2023/06/09 06:01:27;;;;;;;;;17.00;16.67;;;;;23.50;52.61;51652.84;4998763;28;45747;-83
2023/06/09 06:03:52;;;;;;;;;17.33;16.00;;;;;23.15;52.49;51595.38;5017230;28;45441;-83
2023/06/09 06:06:17;;;;;;;;;16.67;16.33;;;;;23.51;52.20;52111.13;5016812;28;45529;-82
2023/06/09 06:08:42;;;;;;;;;20.33;19.00;;;;;23.78;51.83;52207.81;5016910;28;45504;-83
2023/06/09 06:11:08;;;;;;;;;26.67;23.00;;;;;23.57;51.64;52446.78;5014553;28;46265;-83
2023/06/09 06:13:33;;;;;;;;;21.33;21.33;;;;;23.65;51.58;52811.69;5013191;28;45391;-83
2023/06/09 06:16:00;;;;;;;;;16.67;15.33;;;;;23.90;50.92;53070.50;5009689;28;45596;-83
2023/06/09 06:18:25;;;;;;;;;20.00;19.33;;;;;23.98;50.53;53430.84;5016845;28;45482;-83
2023/06/09 06:20:51;;;;;;;;;21.33;19.33;;;;;23.99;51.29;52995.88;5016681;28;45438;-83
2023/06/09 06:23:17;;;;;;;;;19.33;17.67;;;;;24.12;50.58;53351.88;5015322;28;45392;-82
2023/06/09 06:25:42;;;;;;;;;17.67;15.33;;;;;24.20;50.95;53633.41;5013322;28;45497;-84
2023/06/09 06:28:08;;;;;;;;;17.00;17.00;;;;;24.26;50.48;54266.31;5016894;28;45530;-84
2023/06/09 06:30:33;;;;;;;;;20.67;19.33;;;;;24.04;50.18;54811.31;5014154;28;47880;-85
2023/06/09 06:32:58;;;;;;;;;20.00;19.00;;;;;24.14;49.86;54871.50;4999730;28;45544;-85
2023/06/09 06:35:26;;;;;;;;;19.00;18.33;;;;;24.22;49.93;54815.00;5016089;28;45748;-83
2023/06/09 06:37:51;;;;;;;;;16.33;14.67;;;;;23.94;50.13;55076.81;5015665;28;45394;-83
2023/06/09 06:40:17;;;;;;;;;20.67;19.00;;;;;24.00;50.10;54974.41;5014360;28;46816;-83
2023/06/09 06:42:42;;;;;;;;;20.67;19.00;;;;;23.93;49.57;55293.91;4997520;28;45595;-82
2023/06/09 06:45:08;;;;;;;;;20.33;18.67;;;;;24.38;49.89;55602.84;4996617;28;45488;-83
2023/06/09 06:47:34;;;;;;;;;21.00;18.67;;;;;24.48;49.25;55493.00;5016066;28;45527;-82
2023/06/09 06:49:59;;;;;;;;;21.67;19.00;;;;;24.54;49.79;55000.31;4997850;28;47712;-83
2023/06/09 06:52:25;;;;;;;;;18.33;18.33;;;;;23.99;49.93;54868.47;4997601;28;45439;-82
2023/06/09 06:54:50;;;;;;;;;21.00;18.00;;;;;24.72;49.15;55453.63;5015359;28;45400;-83
2023/06/09 06:57:15;;;;;;;;;21.33;18.67;;;;;24.39;48.78;55746.59;5016095;28;45412;-83
2023/06/09 06:59:41;;;;;;;;;16.67;14.67;;;;;24.42;48.77;55970.44;4965739;28;47475;-82
2023/06/09 07:02:07;;;;;;;;;17.00;15.67;;;;;24.22;48.34;56980.56;5002756;28;45602;-89
2023/06/09 07:04:33;;;;;;;;;12.67;12.00;;;;;24.47;48.34;56823.22;5012411;28;46256;-89
2023/06/09 07:06:58;;;;;;;;;20.33;16.67;;;;;24.89;48.46;56783.19;4997608;28;45593;-87
2023/06/09 07:09:25;;;;;;;;;15.33;12.67;;;;;24.55;48.25;57178.84;4997170;28;47907;-86
2023/06/09 07:11:50;;;;;;;;;17.67;16.33;;;;;24.86;47.54;57432.91;5013771;28;45448;-88
2023/06/09 07:14:15;;;;;;;;;15.33;15.33;;;;;25.14;47.87;57185.03;4989866;28;45515;-88
2023/06/09 07:16:41;;;;;;;;;19.33;17.33;;;;;25.38;48.02;57202.94;5008303;28;45365;-87
2023/06/09 07:19:08;;;;;;;;;21.67;18.67;;;;;24.85;47.12;57850.03;4998508;28;47895;-88
2023/06/09 07:21:33;;;;;;;;;19.67;17.67;;;;;25.08;49.52;54816.34;4996764;28;45524;-88
2023/06/09 07:23:59;;;;;;;;;18.00;17.00;;;;;25.24;50.00;53221.25;5011125;28;45523;-88
2023/06/09 07:26:25;;;;;;;;;16.33;15.33;;;;;25.64;49.09;54420.72;5007899;28;45444;-89
2023/06/09 07:28:50;;;;;;;;;19.00;17.00;;;;;25.72;49.14;53917.75;4993622;28;48259;-89
2023/06/09 07:31:16;;;;;;;;;19.00;18.00;;;;;25.49;48.70;54277.03;5010249;28;45503;-96
2023/06/09 07:33:41;;;;;;;;;18.67;15.33;;;;;25.83;46.12;57776.03;4991707;28;45512;-93
2023/06/09 07:36:10;;;;;;;;;21.33;17.67;;;;;25.26;46.04;58905.69;4997441;28;45622;-84
2023/06/09 07:38:37;;;;;;;;;21.00;18.00;;;;;25.65;45.54;59605.84;5005922;28;45460;-85
2023/06/09 07:41:03;;;;;;;;;19.00;16.00;;;;;25.56;45.99;59815.94;5003025;28;45497;-84
2023/06/09 07:43:28;;;;;;;;;17.33;14.33;;;;;25.44;45.79;59873.78;5012956;28;45430;-85
2023/06/09 07:45:53;;;;;;;;;16.67;16.67;;;;;25.98;45.23;60349.91;5012787;28;45502;-84
2023/06/09 07:48:19;;;;;;;;;16.67;14.00;;;;;26.04;45.60;60540.06;5010601;28;46102;-85
2023/06/09 07:50:45;;;;;;;;;15.33;14.67;;;;;26.09;46.00;60196.41;4996740;28;47343;-85
2023/06/09 07:53:10;;;;;;;;;17.33;17.33;;;;;25.96;45.93;60236.97;5018782;28;45748;-87
2023/06/09 07:55:36;;;;;;;;;19.67;16.67;;;;;26.02;45.68;60429.78;5007598;28;45554;-90
2023/06/09 07:58:01;;;;;;;;;18.00;17.33;;;;;26.06;45.59;60214.94;5011774;28;46804;-89
2023/06/09 08:00:27;;;;;;;;;16.33;15.00;;;;;26.27;44.92;60931.50;5007763;28;45399;-87
2023/06/09 08:03:07;;;;;;;;;15.33;14.00;;;;;25.83;45.86;60135.25;4996786;28;45475;-87
2023/06/09 08:05:32;;;;;;;;;16.67;14.33;;;;;26.06;46.55;59152.28;4989934;28;45495;-89
2023/06/09 08:08:00;;;;;;;;;20.33;16.00;;;;;26.63;45.27;60346.25;4980573;28;48009;-87
2023/06/09 08:10:26;;;;;;;;;14.33;14.33;;;;;26.04;45.17;60029.47;4994930;28;45549;-87
2023/06/09 08:12:51;;;;;;;;;19.00;17.67;;;;;26.47;44.95;60437.81;5007468;28;45676;-85
2023/06/09 08:15:18;;;;;;;;;14.67;14.00;;;;;26.86;46.08;59781.59;4989534;28;45903;-88
2023/06/09 08:17:43;;;;;;;;;17.33;14.00;;;;;26.82;45.16;60108.28;4996488;28;47213;-88
2023/06/09 08:20:09;;;;;;;;;19.00;17.00;;;;;27.01;43.99;60896.19;4996093;28;45332;-84
2023/06/09 08:22:35;;;;;;;;;16.67;14.67;;;;;27.08;44.05;60738.28;5013028;28;45403;-84
2023/06/09 08:25:01;;;;;;;;;18.67;15.67;;;;;27.06;44.77;60457.69;5014227;28;45421;-84
2023/06/09 08:27:27;;;;;;;;;19.33;19.33;;;;;26.81;43.68;61560.88;5014508;28;46404;-84
2023/06/09 08:29:52;;;;;;;;;17.33;16.00;;;;;26.59;43.78;61532.66;4996361;28;45460;-85
2023/06/09 08:32:18;;;;;;;;;18.67;16.33;;;;;27.15;44.06;61775.28;5014616;28;46049;-85
2023/06/09 08:34:43;;;;;;;;;17.33;16.00;;;;;27.12;43.21;61761.25;4996395;28;45523;-84
2023/06/09 08:37:09;;;;;;;;;17.00;13.67;;;;;27.53;43.30;62221.44;5014708;28;45858;-85
2023/06/09 08:39:35;;;;;;;;;17.00;15.67;;;;;27.22;43.24;62192.03;4994764;28;45566;-85
2023/06/09 08:42:06;;;;;;;;;16.33;16.33;;;;;27.63;42.86;62310.81;5014927;28;45386;-85
2023/06/09 08:44:38;;;;;;;;;17.00;17.00;;;;;26.98;43.03;61846.59;5015212;28;45560;-85
2023/06/09 08:47:04;;;;;;;;;17.33;15.00;;;;;27.66;43.06;62055.81;4995893;28;46541;-85
2023/06/09 08:49:30;;;;;;;;;15.67;15.67;;;;;27.93;42.99;61801.94;5008982;28;45426;-85
2023/06/09 08:51:58;;;;;;;;;14.67;14.67;;;;;28.40;42.56;61918.78;5014412;28;45512;-85
2023/06/09 08:54:24;;;;;;;;;15.67;15.33;;;;;28.54;42.48;62332.47;5014498;28;45694;-85
2023/06/09 08:56:51;;;;;;;;;19.33;17.33;;;;;28.69;40.98;63000.16;5011822;28;46532;-84
2023/06/09 08:59:17;;;;;;;;;17.67;14.67;;;;;28.82;41.60;62626.13;5012898;28;45451;-84
2023/06/09 09:01:47;;;;;;;;;13.67;13.67;;;;;29.26;41.16;62794.31;5009587;28;45828;-84
2023/06/09 09:04:12;;;;;;;;;15.67;15.67;;;;;29.11;40.91;63004.34;5011584;28;45497;-84
2023/06/09 09:06:39;;;;;;;;;14.00;14.00;;;;;29.34;40.42;63567.34;4994738;28;48651;-84
2023/06/09 09:09:04;;;;;;;;;20.33;17.33;;;;;29.18;40.99;63471.00;4995430;28;45504;-84
2023/06/09 09:11:30;;;;;;;;;16.33;14.00;;;;;28.94;40.68;63532.91;4996676;28;45680;-84
2023/06/09 09:13:56;;;;;;;;;18.67;16.33;;;;;29.55;40.40;63654.50;4992933;28;45522;-84
2023/06/09 09:16:31;;;;;;;;;16.33;14.33;;;;;29.90;40.73;63765.22;5008031;28;45453;-85
2023/06/09 09:18:56;;;;;;;;;14.67;14.67;;;;;29.91;39.54;64155.75;5008088;28;45560;-84
2023/06/09 09:21:23;;;;;;;;;17.33;15.67;;;;;29.96;39.49;64031.06;4998335;28;45448;-84
2023/06/09 09:24:07;;;;;;;;;14.33;12.67;;;;;30.56;38.61;64787.91;5015617;28;45590;-85
2023/06/09 09:26:32;;;;;;;;;15.33;13.67;;;;;31.25;38.25;64811.03;4999965;28;47533;-85
2023/06/09 09:29:06;;;;;;;;;19.33;17.67;;;;;32.06;36.81;65451.00;5015911;28;45419;-84
2023/06/09 09:31:39;;;;;;;;;21.33;16.67;;;;;32.81;35.94;66277.28;4994361;28;45492;-83
2023/06/09 09:34:09;;;;;;;;;15.33;14.67;;;;;33.42;34.82;66668.09;5015242;28;45621;-83
2023/06/09 09:36:44;;;;;;;;;14.67;14.67;;;;;34.24;33.83;67673.63;5000920;28;46272;-84
2023/06/09 09:39:09;;;;;;;;;25.33;21.67;;;;;33.80;33.79;68144.47;5016574;28;45451;-84
2023/06/09 09:41:34;;;;;;;;;32.00;29.33;;;;;33.87;34.53;68239.81;5015496;28;45361;-84
2023/06/09 09:44:00;;;;;;;;;22.00;19.33;;;;;33.64;34.43;68286.09;5017313;28;45481;-85
2023/06/09 09:46:25;;;;;;;;;20.33;18.67;;;;;34.60;33.18;68498.88;5013638;28;48569;-84
2023/06/09 09:48:51;;;;;;;;;19.33;19.33;;;;;35.24;32.54;68910.09;4998787;28;45659;-85
2023/06/09 09:51:20;;;;;;;;;12.67;12.67;;;;;35.84;32.39;69334.41;5010182;28;45484;-85
2023/06/09 09:53:46;;;;;;;;;20.00;17.00;;;;;36.04;31.14;69676.81;5008262;28;45594;-85
2023/06/09 09:56:13;;;;;;;;;19.00;17.33;;;;;36.97;30.37;70148.16;4997431;28;45478;-84
2023/06/09 09:58:42;;;;;;;;;15.33;14.33;;;;;37.14;30.00;70465.81;4997970;28;46289;-84
2023/06/09 10:01:10;;;;;;;;;17.33;17.00;;;;;37.39;29.96;70617.16;5012937;28;45423;-84
2023/06/09 10:03:38;;;;;;;;;17.33;16.67;;;;;37.13;29.95;70814.97;5009921;28;45850;-84
2023/06/09 10:06:08;;;;;;;;;17.00;16.67;;;;;37.16;29.20;70763.41;5005226;28;46309;-84
2023/06/09 10:08:35;;;;;;;;;16.67;16.00;;;;;37.65;29.05;70829.41;5015711;28;45582;-84
2023/06/09 10:11:01;;;;;;;;;16.00;12.67;;;;;38.09;27.74;70787.19;5015578;28;45422;-85
2023/06/09 10:13:27;;;;;;;;;14.00;13.00;;;;;38.55;28.30;71059.13;4972514;28;45714;-84
2023/06/09 10:15:53;;;;;;;;;15.00;13.00;;;;;38.76;27.29;71067.81;5012603;28;46125;-84
2023/06/09 10:18:20;;;;;;;;;15.00;13.33;;;;;38.96;27.66;71155.00;5014642;28;45441;-85
2023/06/09 10:20:48;;;;;;;;;13.33;13.33;;;;;39.47;26.80;71267.34;4999971;28;45539;-84
2023/06/09 10:23:14;;;;;;;;;13.00;11.67;;;;;39.22;27.10;71246.66;5014984;28;45490;-84
2023/06/09 10:25:41;;;;;;;;;14.67;14.67;;;;;39.30;26.36;71232.97;5015048;28;46192;-84
2023/06/09 10:28:07;;;;;;;;;14.00;14.00;;;;;39.74;26.25;71187.94;5014482;28;45626;-84
2023/06/09 10:30:33;;;;;;;;;15.33;12.67;;;;;39.55;26.40;71132.38;5015506;28;45470;-84
2023/06/09 10:33:10;;;;;;;;;12.33;11.00;;;;;39.22;26.22;71108.25;5015478;28;45338;-84
2023/06/09 10:35:38;;;;;;;;;11.67;10.00;;;;;39.35;26.07;71072.84;5009964;28;46257;-84
2023/06/09 10:38:28;;;;;;;;;10.67;10.67;;;;;39.36;26.85;71140.50;5016357;28;45990;-84
2023/06/09 10:41:11;;;;;;;;;12.67;12.67;;;;;39.36;26.09;71127.31;5002020;28;45703;-83
2023/06/09 10:44:05;;;;;;;;;15.67;15.33;;;;;39.28;26.36;70993.06;5015441;28;45459;-84
2023/06/09 10:46:49;;;;;;;;;11.33;11.33;;;;;39.05;26.13;70941.66;4918649;28;47174;-84
2023/06/09 10:49:40;;;;;;;;;11.00;11.00;;;;;39.19;26.06;70905.31;4917786;28;45452;-84
2023/06/09 10:52:34;;;;;;;;;10.67;9.33;;;;;39.14;25.87;70901.47;4924794;28;45678;-83
2023/06/09 10:55:13;;;;;;;;;14.33;14.33;;;;;39.01;26.06;70864.34;4920357;28;45553;-83
2023/06/09 10:57:39;;;;;;;;;14.00;13.00;;;;;39.06;25.25;70704.31;4917154;28;47356;-84
2023/06/09 11:00:11;;;;;;;;;9.00;9.00;;;;;38.92;25.58;70710.25;4933774;28;45491;-84
2023/06/09 11:02:57;;;;;;;;;10.33;10.33;;;;;38.60;26.22;70838.38;4926221;28;45501;-83
2023/06/09 11:05:40;;;;;;;;;12.00;11.67;;;;;38.46;25.95;70763.47;4847124;29;45617;-84
2023/06/09 11:08:07;;;;;;;;;11.33;11.33;;;;;37.98;25.58;70597.75;4854949;29;45560;-85
2023/06/09 11:10:34;;;;;;;;;11.33;11.00;;;;;37.68;27.37;70678.38;4851256;29;45454;-84
2023/06/09 11:12:59;;;;;;;;;13.33;11.00;;;;;37.62;26.68;70660.13;4845004;29;45482;-84
2023/06/09 11:16:00;;;;;;;;;13.33;12.67;;;;;37.20;26.90;70637.94;4852110;29;45541;-84
2023/06/09 11:18:26;;;;;;;;;14.00;11.67;;;;;36.81;27.55;70648.09;4847907;29;46187;-85
2023/06/09 11:21:07;;;;;;;;;13.67;13.67;;;;;37.11;27.22;70567.03;4851464;29;45502;-83
2023/06/09 11:23:52;;;;;;;;;11.67;11.67;;;;;37.08;27.99;70640.69;4871223;29;45647;-83
2023/06/09 11:26:22;;;;;;;;;12.00;10.67;;;;;36.55;27.28;70477.47;4880676;29;45690;-83
2023/06/09 11:28:48;;;;;;;;;11.67;11.67;;;;;37.07;28.08;70664.31;4895901;29;46011;-82
2023/06/09 11:31:13;;;;;;;;;11.67;10.67;;;;;37.06;27.87;70633.38;4896152;29;45552;-83
2023/06/09 11:33:50;;;;;;;;;11.33;11.33;;;;;37.06;26.92;70649.91;4868533;29;45665;-83
2023/06/09 11:36:17;;;;;;;;;11.67;11.67;;;;;36.92;27.14;70666.19;4896178;29;45507;-81
2023/06/09 11:38:43;;;;;;;;;13.00;10.67;;;;;36.89;28.53;70607.44;4895463;29;47984;-82
2023/06/09 11:41:11;;;;;;;;;11.67;10.67;;;;;36.94;27.61;70577.56;4879953;29;45539;-82
2023/06/09 11:43:37;;;;;;;;;13.00;13.00;;;;;36.98;27.50;70560.91;4988441;28;45370;-82
2023/06/09 11:46:03;;;;;;;;;10.67;10.67;;;;;36.63;27.71;70627.06;4995407;28;45549;-82
2023/06/09 11:48:29;;;;;;;;;15.00;11.33;;;;;36.91;28.15;70604.31;4994774;28;45627;-82
2023/06/09 11:50:54;;;;;;;;;12.67;12.33;;;;;36.90;26.65;70462.47;4995449;28;45474;-81
2023/06/09 11:53:21;;;;;;;;;9.00;9.00;;;;;36.91;27.05;70546.41;4990696;28;45454;-82
2023/06/09 11:55:57;;;;;;;;;12.33;11.33;;;;;36.82;27.04;70519.66;4980586;28;45575;-83
2023/06/09 11:58:22;;;;;;;;;10.67;9.00;;;;;36.44;28.10;70447.19;4994961;28;46032;-83
2023/06/09 12:00:49;;;;;;;;;10.00;10.00;;;;;36.52;27.56;70512.47;4995115;28;45509;-83
2023/06/09 12:03:18;;;;;;;;;11.00;11.00;;;;;36.16;27.95;70433.53;4995480;28;45472;-84
2023/06/09 12:05:51;;;;;;;;;11.67;11.67;;;;;35.85;28.52;70436.72;4992553;28;45573;-83
2023/06/09 12:08:17;;;;;;;;;11.00;11.00;;;;;35.68;29.27;70446.63;4990858;28;45641;-83
2023/06/09 12:10:43;;;;;;;;;13.67;12.67;;;;;35.38;29.37;70422.91;4992829;28;45575;-82
2023/06/09 12:13:08;;;;;;;;;11.67;11.00;;;;;34.95;29.75;70441.28;4993562;28;45773;-82
2023/06/09 12:15:34;;;;;;;;;12.00;11.33;;;;;34.63;29.21;70370.53;4994813;28;45532;-82
2023/06/09 12:18:03;;;;;;;;;10.33;10.00;;;;;34.70;29.23;70427.81;4994951;28;45831;-82
2023/06/09 12:20:30;;;;;;;;;13.00;10.33;;;;;34.58;30.00;70435.97;4993714;28;46081;-82
2023/06/09 12:22:57;;;;;;;;;12.00;12.00;;;;;34.07;29.71;70448.00;4995243;28;45525;-82
2023/06/09 12:25:27;;;;;;;;;13.33;13.33;;;;;34.18;30.19;70505.16;4991889;28;45656;-82
2023/06/09 12:27:53;;;;;;;;;13.67;13.00;;;;;34.06;28.80;70235.97;4975357;28;45496;-86
2023/06/09 12:30:39;;;;;;;;;13.33;12.67;;;;;33.59;29.14;70270.91;4993339;28;45336;-83
2023/06/09 12:33:10;;;;;;;;;16.33;14.67;;;;;33.83;29.58;70304.53;4993746;28;45562;-82
2023/06/09 12:35:40;;;;;;;;;14.00;13.00;;;;;33.83;28.82;70351.19;5001390;28;45511;-83
2023/06/09 12:38:26;;;;;;;;;12.67;11.67;;;;;33.89;29.40;70407.78;5014744;28;46035;-82
2023/06/09 12:40:53;;;;;;;;;13.00;10.33;;;;;33.89;29.78;70355.03;4996200;28;45477;-83
2023/06/09 12:43:21;;;;;;;;;12.67;11.33;;;;;33.82;29.98;70334.13;5005232;28;45466;-82
2023/06/09 12:45:47;;;;;;;;;11.33;10.67;;;;;33.78;29.04;70340.28;5012371;28;45483;-82
2023/06/09 12:48:14;;;;;;;;;12.33;10.00;;;;;33.53;28.80;70308.19;5014773;28;46639;-83
2023/06/09 12:50:40;;;;;;;;;12.00;12.00;;;;;33.67;30.50;70321.03;5000486;28;45442;-83
2023/06/09 12:53:08;;;;;;;;;12.67;12.67;;;;;33.62;31.18;70351.31;5017504;28;45490;-83
2023/06/09 12:55:34;;;;;;;;;10.67;9.33;;;;;33.29;31.21;70337.00;5009437;28;46868;-83
2023/06/09 12:57:59;;;;;;;;;13.67;9.00;;;;;33.46;29.14;70389.69;4994124;28;48053;-83
2023/06/09 13:00:24;;;;;;;;;11.67;11.67;;;;;33.39;30.42;70398.97;4999651;28;45434;-82
2023/06/09 13:02:50;;;;;;;;;12.00;11.33;;;;;32.97;31.56;70319.63;5008293;28;45506;-83
2023/06/09 13:05:16;;;;;;;;;13.00;12.67;;;;;33.30;30.90;70349.19;4990648;28;45451;-82
2023/06/09 13:07:43;;;;;;;;;12.00;11.67;;;;;32.63;31.22;70350.09;5018278;28;45521;-82
2023/06/09 13:10:09;;;;;;;;;11.67;9.00;;;;;33.04;30.58;70291.16;5017372;28;45501;-83
2023/06/09 13:12:35;;;;;;;;;15.00;14.00;;;;;32.83;30.85;70389.91;5000302;28;45504;-82
2023/06/09 13:15:01;;;;;;;;;12.67;10.67;;;;;33.00;32.02;70317.72;4999636;28;45534;-82
2023/06/09 13:17:27;;;;;;;;;10.67;10.67;;;;;32.89;30.56;70334.69;4999515;28;47903;-83
2023/06/09 13:19:52;;;;;;;;;11.33;11.33;;;;;32.16;31.22;70271.44;5017021;28;45463;-82
2023/06/09 13:22:17;;;;;;;;;11.33;10.00;;;;;32.71;32.01;70293.91;5018272;28;45413;-83
2023/06/09 13:24:43;;;;;;;;;11.67;11.67;;;;;32.14;31.40;70279.38;5017044;28;45442;-83
2023/06/09 13:27:08;;;;;;;;;10.67;10.67;;;;;32.07;32.20;70213.53;4999831;28;48496;-82
2023/06/09 13:29:33;;;;;;;;;10.67;10.67;;;;;32.43;32.24;70357.41;5011082;28;45682;-83
2023/06/09 13:31:59;;;;;;;;;11.67;11.67;;;;;31.99;31.96;70245.59;5017496;28;45454;-83
2023/06/09 13:34:25;;;;;;;;;11.00;11.00;;;;;32.13;31.98;70251.41;4999853;28;45428;-83
2023/06/09 13:36:50;;;;;;;;;11.67;11.67;;;;;32.27;31.57;70299.88;4999766;28;47233;-83
2023/06/09 13:39:15;;;;;;;;;12.00;11.00;;;;;32.28;32.77;70356.41;4999533;28;45543;-84
2023/06/09 13:41:41;;;;;;;;;11.67;11.67;;;;;32.21;32.29;70309.09;5017272;28;45443;-82
2023/06/09 13:44:07;;;;;;;;;11.00;11.00;;;;;32.01;33.11;70289.03;5017329;28;45559;-83
2023/06/09 13:46:33;;;;;;;;;11.00;11.00;;;;;31.87;33.47;70305.66;5017047;28;45514;-83
2023/06/09 13:48:59;;;;;;;;;13.00;11.33;;;;;32.07;32.43;70295.63;5011424;28;45423;-83
2023/06/09 13:51:24;;;;;;;;;13.00;10.67;;;;;32.18;32.86;70344.41;4997651;28;45661;-83
2023/06/09 13:53:49;;;;;;;;;9.67;9.67;;;;;31.56;33.14;70244.44;4997719;28;45801;-82
2023/06/09 13:56:16;;;;;;;;;12.33;10.33;;;;;31.89;32.46;70255.47;5010115;28;46494;-82
2023/06/09 13:58:42;;;;;;;;;9.33;9.33;;;;;32.00;32.68;70293.31;5017144;28;45454;-83
2023/06/09 14:01:08;;;;;;;;;9.33;8.67;;;;;32.04;32.02;70272.88;5016775;28;45703;-82
2023/06/09 14:03:34;;;;;;;;;14.00;11.67;;;;;32.05;33.51;70321.19;5018114;28;45674;-83
2023/06/09 14:05:59;;;;;;;;;9.67;9.67;;;;;31.99;33.53;70390.63;5006713;28;46397;-83
2023/06/09 14:08:25;;;;;;;;;11.33;10.00;;;;;31.99;33.16;70348.97;5001471;28;45822;-82
2023/06/09 14:10:50;;;;;;;;;11.00;11.00;;;;;31.91;33.77;70337.81;5016903;28;45435;-82
2023/06/09 14:13:16;;;;;;;;;10.67;10.67;;;;;31.27;34.04;70240.31;5015044;28;45564;-83
2023/06/09 14:15:41;;;;;;;;;11.33;9.33;;;;;31.82;34.40;70285.97;4979844;28;46657;-84
2023/06/09 14:18:06;;;;;;;;;8.67;8.67;;;;;31.81;34.11;70215.78;5012933;28;45483;-82
2023/06/09 14:20:32;;;;;;;;;12.33;9.33;;;;;31.53;32.94;70169.75;5017082;28;45388;-84
2023/06/09 14:23:01;;;;;;;;;7.33;7.33;;;;;31.21;32.64;70165.41;5012688;28;45497;-86
2023/06/09 14:25:27;;;;;;;;;10.67;10.33;;;;;31.70;33.75;70225.06;5016861;28;46358;-87
2023/06/09 14:27:53;;;;;;;;;10.33;10.33;;;;;31.64;34.12;70264.38;5011537;28;46578;-83
2023/06/09 14:30:19;;;;;;;;;7.67;7.67;;;;;31.65;34.47;70230.63;5015383;28;45455;-85
2023/06/09 14:32:49;;;;;;;;;11.00;10.33;;;;;31.47;33.48;70179.59;4998342;28;45458;-83
2023/06/09 14:35:25;;;;;;;;;9.67;9.67;;;;;31.34;34.37;70180.38;5016269;28;45583;-84
2023/06/09 14:37:52;;;;;;;;;12.33;11.00;;;;;31.58;34.29;70260.50;5015536;28;45513;-85
2023/06/09 14:40:18;;;;;;;;;9.00;9.00;;;;;31.56;34.65;70244.44;4997254;28;45688;-84
2023/06/09 14:42:45;;;;;;;;;8.67;8.67;;;;;31.49;34.32;70227.84;4998599;28;45493;-84
2023/06/09 14:45:11;;;;;;;;;13.00;9.33;;;;;31.17;34.66;70220.16;5013931;28;46277;-84
2023/06/09 14:47:37;;;;;;;;;9.00;8.00;;;;;31.35;34.79;70189.75;4998750;28;45756;-83
2023/06/09 14:50:02;;;;;;;;;11.67;11.67;;;;;31.21;33.21;70129.88;4994688;28;45582;-83
2023/06/09 14:52:27;;;;;;;;;11.00;11.00;;;;;31.18;34.14;70136.59;5014583;28;45732;-83
2023/06/09 14:54:53;;;;;;;;;15.67;14.00;;;;;30.91;33.98;70155.25;5005670;28;45546;-84
2023/06/09 14:57:18;;;;;;;;;12.67;12.67;;;;;30.73;32.92;70152.19;5001190;28;45490;-85
2023/06/09 14:59:43;;;;;;;;;12.33;9.33;;;;;30.77;32.83;70126.94;5012167;28;45536;-84
2023/06/09 15:02:09;;;;;;;;;13.00;11.00;;;;;30.68;34.14;70171.34;5004613;28;45471;-84
2023/06/09 15:04:34;;;;;;;;;11.33;11.33;;;;;31.00;34.55;70192.75;5007884;28;48506;-84
2023/06/09 15:07:00;;;;;;;;;11.33;10.00;;;;;30.56;34.38;70132.41;5009447;28;45674;-83
2023/06/09 15:09:25;;;;;;;;;10.33;10.33;;;;;30.22;34.11;70068.28;5013388;28;46212;-84
2023/06/09 15:11:50;;;;;;;;;12.67;10.33;;;;;30.89;34.40;70149.53;5013990;28;45681;-84
2023/06/09 15:14:16;;;;;;;;;11.67;10.67;;;;;30.75;34.25;70133.31;5014027;28;45443;-84
2023/06/09 15:16:41;;;;;;;;;10.33;10.33;;;;;30.92;34.77;70268.44;5008948;28;45588;-85
2023/06/09 15:19:06;;;;;;;;;1.67;1.67;;;;;30.91;34.27;70165.56;4994182;28;45571;-83
2023/06/09 15:21:33;;;;;;;;;11.33;11.00;;;;;30.35;34.85;70119.34;5012719;28;45869;-84
2023/06/09 15:23:58;;;;;;;;;9.33;9.33;;;;;30.38;35.75;70116.88;4997035;28;46413;-85
2023/06/09 15:26:23;;;;;;;;;9.33;9.33;;;;;30.47;33.60;70038.19;4991021;28;45621;-86
2023/06/09 15:28:49;;;;;;;;;12.33;11.00;;;;;30.69;34.93;70235.34;4998123;28;45511;-86
2023/06/09 15:31:14;;;;;;;;;12.33;10.33;;;;;30.36;34.96;70085.06;4998120;28;45456;-87
2023/06/09 15:33:40;;;;;;;;;9.00;8.00;;;;;30.34;34.69;70093.59;4997262;28;46306;-87
2023/06/09 15:36:05;;;;;;;;;10.67;9.33;;;;;30.80;34.74;70133.25;4994211;28;45601;-86
2023/06/09 15:38:32;;;;;;;;;10.00;9.00;;;;;30.46;35.44;70148.31;5013404;28;45991;-86
2023/06/09 15:40:58;;;;;;;;;12.33;12.00;;;;;30.44;35.21;70135.59;5012361;28;45779;-87
2023/06/09 15:43:26;;;;;;;;;12.00;9.67;;;;;30.52;34.19;70073.59;5014538;28;45668;-86
2023/06/09 15:45:53;;;;;;;;;10.67;10.67;;;;;30.76;34.83;70131.78;5015030;28;45427;-86
2023/06/09 15:48:21;;;;;;;;;10.33;9.33;;;;;30.72;35.26;70107.88;5015564;28;45578;-83
2023/06/09 15:50:47;;;;;;;;;11.00;10.33;;;;;30.46;33.09;70164.69;5014437;28;45919;-88
2023/06/09 15:53:19;;;;;;;;;9.67;9.33;;;;;30.42;36.08;70110.78;4992111;28;47370;-87
2023/06/09 15:55:44;;;;;;;;;10.33;9.00;;;;;30.70;35.98;70130.66;5009744;28;45726;-86
2023/06/09 15:58:10;;;;;;;;;12.33;10.33;;;;;30.58;35.81;70072.00;5006528;28;45617;-87
2023/06/09 16:00:36;;;;;;;;;10.00;10.00;;;;;30.67;35.29;70097.03;4995401;28;45570;-88
2023/06/09 16:03:05;;;;;;;;;9.33;9.33;;;;;30.43;34.05;70079.78;4997034;28;48281;-89
2023/06/09 16:05:35;;;;;;;;;4.67;4.67;;;;;30.64;35.33;70118.00;5014790;28;45418;-87
2023/06/09 16:08:03;;;;;;;;;10.67;8.67;;;;;30.12;35.21;70020.84;5014941;28;45408;-87
2023/06/09 16:10:31;;;;;;;;;9.67;9.67;;;;;30.30;34.63;70056.06;4994530;28;45443;-89
2023/06/09 16:12:56;;;;;;;;;9.67;9.67;;;;;30.41;35.84;70027.66;5011206;28;45660;-88
2023/06/09 16:15:21;;;;;;;;;7.00;7.00;;;;;30.34;35.83;70049.91;4996265;28;45408;-85
2023/06/09 16:17:47;;;;;;;;;10.67;8.67;;;;;30.30;36.22;70001.47;5014707;28;45355;-85
2023/06/09 16:20:12;;;;;;;;;13.00;10.33;;;;;30.32;35.84;70098.78;4999080;28;45549;-86
2023/06/09 16:22:37;;;;;;;;;9.33;9.33;;;;;30.18;35.98;70045.00;5010956;28;45827;-83